createdAt,value
2022-12-13T00:01:26.306Z,-2.50
2022-12-13T00:03:54.227Z,-2.50
2022-12-13T00:06:21.367Z,-2.50
2022-12-13T00:08:48.396Z,-2.49
2022-12-13T00:11:17.202Z,-2.47
2022-12-13T00:13:44.370Z,-2.49
2022-12-13T00:16:14.136Z,-2.47
2022-12-13T00:18:41.116Z,-2.47
2022-12-13T00:21:12.892Z,-2.45
2022-12-13T00:23:39.818Z,-2.43
2022-12-13T00:26:10.204Z,-2.41
2022-12-13T00:28:37.787Z,-2.39
2022-12-13T00:31:35.258Z,-2.36
2022-12-13T00:33:52.169Z,-2.33
2022-12-13T00:36:19.928Z,-2.30
2022-12-13T00:38:46.876Z,-2.26
2022-12-13T00:41:16.988Z,-2.23
2022-12-13T00:43:44.720Z,-2.19
2022-12-13T00:46:17.587Z,-2.15
2022-12-13T00:48:48.345Z,-2.09
2022-12-13T00:51:15.442Z,-2.10
2022-12-13T00:53:42.383Z,-2.10
2022-12-13T00:56:15.013Z,-2.10
2022-12-13T00:58:45.015Z,-2.10
2022-12-13T01:01:15.823Z,-2.07
2022-12-13T01:03:43.196Z,-2.06
2022-12-13T01:06:17.639Z,-2.07
2022-12-13T01:08:45.116Z,-2.05
2022-12-13T01:11:12.900Z,-2.06
2022-12-13T01:13:40.368Z,-2.06
2022-12-13T01:16:09.735Z,-2.06
2022-12-13T01:18:36.783Z,-2.06
2022-12-13T01:21:11.441Z,-2.07
2022-12-13T01:23:39.122Z,-2.04
2022-12-13T01:26:08.429Z,-2.03
2022-12-13T01:28:35.568Z,-2.04
2022-12-13T01:31:05.972Z,-2.04
2022-12-13T01:33:33.850Z,-2.06
2022-12-13T01:36:02.888Z,-2.12
2022-12-13T01:38:29.702Z,-2.08
2022-12-13T01:41:00.179Z,-2.06
2022-12-13T01:43:50.216Z,-2.08
2022-12-13T01:46:18.959Z,-2.06
2022-12-13T01:49:00.824Z,-2.06
2022-12-13T01:51:38.137Z,-2.05
2022-12-13T01:54:08.796Z,-2.08
2022-12-13T01:56:42.881Z,-2.06
2022-12-13T01:59:11.602Z,-2.07
2022-12-13T02:01:39.106Z,-2.08
2022-12-13T02:04:07.395Z,-2.12
2022-12-13T02:06:38.107Z,-2.13
2022-12-13T02:09:07.054Z,-2.15
2022-12-13T02:11:36.037Z,-2.13
2022-12-13T02:14:03.608Z,-2.15
2022-12-13T02:16:52.989Z,-2.16
2022-12-13T02:19:54.736Z,-2.16
2022-12-13T02:22:46.226Z,-2.17
2022-12-13T02:25:28.415Z,-2.16
2022-12-13T02:28:30.180Z,-2.18
2022-12-13T02:31:43.676Z,-2.19
2022-12-13T02:34:34.972Z,-2.21
2022-12-13T02:37:23.719Z,-2.19
2022-12-13T02:43:07.276Z,-2.18
2022-12-13T02:45:46.287Z,-2.19
2022-12-13T02:48:15.765Z,-2.19
2022-12-13T02:50:43.426Z,-2.17
2022-12-13T02:53:12.996Z,-2.18
2022-12-13T02:55:40.783Z,-2.17
2022-12-13T02:58:07.691Z,-2.16
2022-12-13T03:00:51.275Z,-2.16
2022-12-13T03:03:46.141Z,-2.19
2022-12-13T03:06:33.286Z,-2.21
2022-12-13T03:09:09.902Z,-2.27
2022-12-13T03:12:12.229Z,-2.27
2022-12-13T03:14:45.387Z,-2.29
2022-12-13T03:17:17.210Z,-2.32
2022-12-13T03:19:44.431Z,-2.33
2022-12-13T03:22:12.096Z,-2.32
2022-12-13T03:24:38.874Z,-2.36
2022-12-13T03:27:06.158Z,-2.32
2022-12-13T03:29:32.944Z,-2.34
2022-12-13T03:32:00.093Z,-2.33
2022-12-13T03:34:26.941Z,-2.35
2022-12-13T03:37:12.305Z,-2.36
2022-12-13T03:39:39.415Z,-2.36
2022-12-13T03:42:06.661Z,-2.36
2022-12-13T03:44:33.445Z,-2.35
2022-12-13T03:47:00.890Z,-2.39
2022-12-13T03:49:35.203Z,-2.40
2022-12-13T03:52:02.849Z,-2.40
2022-12-13T03:54:29.646Z,-2.41
2022-12-13T03:56:56.786Z,-2.38
2022-12-13T03:59:23.524Z,-2.38
2022-12-13T04:01:50.715Z,-2.39
2022-12-13T04:04:17.544Z,-2.36
2022-12-13T04:06:44.720Z,-2.36
2022-12-13T04:09:11.483Z,-2.35
2022-12-13T04:11:57.202Z,-2.38
2022-12-13T04:14:24.039Z,-2.40
2022-12-13T04:16:52.558Z,-2.38
2022-12-13T04:19:22.869Z,-2.36
2022-12-13T04:21:54.284Z,-2.36
2022-12-13T04:24:22.477Z,-2.37
2022-12-13T04:27:01.019Z,-2.41
2022-12-13T04:29:34.537Z,-2.39
2022-12-13T04:32:05.755Z,-2.37
2022-12-13T04:34:52.601Z,-2.38
2022-12-13T04:37:28.793Z,-2.42
2022-12-13T04:40:00.949Z,-2.43
2022-12-13T04:42:28.661Z,-2.42
2022-12-13T04:44:55.467Z,-2.43
2022-12-13T04:47:22.951Z,-2.44
2022-12-13T04:49:49.821Z,-2.46
2022-12-13T04:52:22.764Z,-2.44
2022-12-13T04:54:55.833Z,-2.45
2022-12-13T04:57:23.968Z,-2.45
2022-12-13T04:59:50.713Z,-2.42
2022-12-13T05:02:23.401Z,-2.42
2022-12-13T05:04:54.411Z,-2.44
2022-12-13T05:07:23.011Z,-2.41
2022-12-13T05:09:49.814Z,-2.38
2022-12-13T05:12:22.578Z,-2.37
2022-12-13T05:14:51.582Z,-2.38
2022-12-13T05:17:18.915Z,-2.35
2022-12-13T05:19:45.805Z,-2.38
2022-12-13T05:22:19.896Z,-2.38
2022-12-13T05:24:47.446Z,-2.39
2022-12-13T05:27:25.893Z,-2.42
2022-12-13T05:30:03.613Z,-2.42
2022-12-13T05:32:44.026Z,-2.43
2022-12-13T05:35:22.763Z,-2.49
2022-12-13T05:37:53.861Z,-2.52
2022-12-13T05:40:22.126Z,-2.53
2022-12-13T05:42:49.316Z,-2.54
2022-12-13T05:45:18.370Z,-2.55
2022-12-13T05:47:45.790Z,-2.57
2022-12-13T05:50:14.030Z,-2.62
2022-12-13T05:52:43.005Z,-2.66
2022-12-13T05:55:11.222Z,-2.66
2022-12-13T05:57:38.726Z,-2.68
2022-12-13T06:00:28.514Z,-2.71
2022-12-13T06:02:55.750Z,-2.71
2022-12-13T06:05:22.970Z,-2.72
2022-12-13T06:07:55.117Z,-2.75
2022-12-13T06:10:23.822Z,-2.76
2022-12-13T06:12:50.893Z,-2.79
2022-12-13T06:15:22.497Z,-2.82
2022-12-13T06:17:50.110Z,-2.79
2022-12-13T06:20:23.927Z,-2.82
2022-12-13T06:22:54.672Z,-2.84
2022-12-13T06:25:30.074Z,-2.84
2022-12-13T06:28:01.690Z,-2.88
2022-12-13T06:30:29.713Z,-2.89
2022-12-13T06:32:57.448Z,-2.89
2022-12-13T06:35:28.401Z,-2.90
2022-12-13T06:38:01.194Z,-2.90
2022-12-13T06:40:32.538Z,-2.87
2022-12-13T06:42:59.771Z,-2.85
2022-12-13T06:45:26.940Z,-2.85
2022-12-13T06:47:54.044Z,-2.86
2022-12-13T06:50:20.892Z,-2.83
2022-12-13T06:52:48.196Z,-2.81
2022-12-13T06:55:15.381Z,-2.79
2022-12-13T06:57:51.937Z,-2.75
2022-12-13T07:00:22.452Z,-2.75
2022-12-13T07:02:56.944Z,-2.70
2022-12-13T07:05:25.165Z,-2.69
2022-12-13T07:07:52.328Z,-2.73
2022-12-13T07:10:21.822Z,-2.70
2022-12-13T07:12:50.678Z,-2.67
2022-12-13T07:15:17.799Z,-2.62
2022-12-13T07:17:44.948Z,-2.60
2022-12-13T07:20:13.674Z,-2.62
2022-12-13T07:22:47.321Z,-2.62
2022-12-13T07:25:28.462Z,-2.62
2022-12-13T07:28:01.891Z,-2.62
2022-12-13T07:30:34.507Z,-2.55
2022-12-13T07:33:09.405Z,-2.54
2022-12-13T07:35:37.184Z,-2.52
2022-12-13T07:38:09.147Z,-2.50
2022-12-13T07:40:38.343Z,-2.49
2022-12-13T07:43:06.586Z,-2.48
2022-12-13T07:45:33.665Z,-2.50
2022-12-13T07:48:05.427Z,-2.48
2022-12-13T07:50:36.828Z,-2.45
2022-12-13T07:53:07.330Z,-2.45
2022-12-13T07:55:34.555Z,-2.45
2022-12-13T07:58:13.080Z,-2.42
2022-12-13T08:00:46.474Z,-2.42
2022-12-13T08:03:25.447Z,-2.45
2022-12-13T08:06:05.572Z,-2.41
2022-12-13T08:08:33.897Z,-2.40
2022-12-13T08:11:04.477Z,-2.43
2022-12-13T08:13:31.928Z,-2.45
2022-12-13T08:16:04.572Z,-2.46
2022-12-13T08:18:51.593Z,-2.43
2022-12-13T08:21:51.833Z,-2.43
2022-12-13T08:24:06.621Z,-2.48
2022-12-13T08:26:35.037Z,-2.51
2022-12-13T08:29:02.312Z,-2.47
2022-12-13T08:31:33.853Z,-2.43
2022-12-13T08:34:01.226Z,-2.41
2022-12-13T08:36:28.651Z,-2.40
2022-12-13T08:38:57.101Z,-2.43
2022-12-13T08:41:24.755Z,-2.41
2022-12-13T08:43:51.895Z,-2.45
2022-12-13T08:46:18.739Z,-2.43
2022-12-13T08:48:46.098Z,-2.43
2022-12-13T08:51:24.560Z,-2.40
2022-12-13T08:53:52.985Z,-2.40
2022-12-13T08:56:37.670Z,-2.36
2022-12-13T08:59:05.321Z,-2.26
2022-12-13T09:01:32.904Z,-2.25
2022-12-13T09:04:00.042Z,-2.32
2022-12-13T09:06:26.984Z,-2.34
2022-12-13T09:08:54.772Z,-2.24
2022-12-13T09:11:34.726Z,-2.25
2022-12-13T09:14:04.821Z,-2.28
2022-12-13T09:16:35.750Z,-2.29
2022-12-13T09:19:06.556Z,-2.33
2022-12-13T09:21:52.274Z,-2.43
2022-12-13T09:24:24.257Z,-2.51
2022-12-13T09:26:57.410Z,-2.54
2022-12-13T09:29:25.512Z,-2.50
2022-12-13T09:31:53.416Z,-2.41
2022-12-13T09:34:20.842Z,-2.32
2022-12-13T09:36:47.717Z,-2.21
2022-12-13T09:39:16.260Z,-2.10
2022-12-13T09:41:50.626Z,-2.03
2022-12-13T09:44:31.019Z,-1.96
2022-12-13T09:47:02.918Z,-1.92
2022-12-13T09:49:35.941Z,-1.96
2022-12-13T09:52:11.398Z,-2.00
2022-12-13T09:54:55.365Z,-1.95
2022-12-13T09:57:33.855Z,-1.95
2022-12-13T10:00:07.310Z,-1.97
2022-12-13T10:02:58.837Z,-1.94
2022-12-13T10:05:33.664Z,-1.91
2022-12-13T10:08:19.040Z,-1.89
2022-12-13T10:10:46.273Z,-1.88
2022-12-13T10:13:26.862Z,-1.93
2022-12-13T10:16:02.439Z,-1.88
2022-12-13T10:18:38.237Z,-1.88
2022-12-13T10:21:11.740Z,-1.89
2022-12-13T10:24:15.302Z,-1.92
2022-12-13T10:26:25.841Z,-2.04
2022-12-13T10:29:02.993Z,-1.99
2022-12-13T10:31:30.453Z,-1.90
2022-12-13T10:33:57.647Z,-1.83
2022-12-13T10:36:30.339Z,-1.63
2022-12-13T10:38:57.523Z,-1.55
2022-12-13T10:41:30.476Z,-1.44
2022-12-13T10:44:09.486Z,-1.40
2022-12-13T10:46:38.797Z,-1.33
2022-12-13T10:49:26.320Z,-1.29
2022-12-13T10:51:54.457Z,-1.22
2022-12-13T10:54:29.140Z,-1.41
2022-12-13T10:57:11.578Z,-1.54
2022-12-13T10:59:39.944Z,-1.66
2022-12-13T11:02:28.565Z,-1.68
2022-12-13T11:04:56.462Z,-1.71
2022-12-13T11:07:34.222Z,-1.79
2022-12-13T11:10:36.605Z,-1.89
2022-12-13T11:13:07.227Z,-1.90
2022-12-13T11:15:38.262Z,-1.88
2022-12-13T11:18:18.678Z,-1.96
2022-12-13T11:20:59.432Z,-1.96
2022-12-13T11:23:39.821Z,-1.86
2022-12-13T11:26:16.808Z,-1.71
2022-12-13T11:29:25.960Z,-1.58
2022-12-13T11:32:09.362Z,-1.48
2022-12-13T11:35:14.338Z,-1.36
2022-12-13T11:38:05.194Z,-1.32
2022-12-13T11:40:38.011Z,-1.29
2022-12-13T11:43:42.777Z,-1.21
2022-12-13T11:46:38.905Z,-1.24
2022-12-13T11:49:24.532Z,-1.25
2022-12-13T11:52:04.286Z,-1.29
2022-12-13T11:54:52.827Z,-1.36
2022-12-13T11:57:31.057Z,-1.40
2022-12-13T12:00:34.171Z,-1.39
2022-12-13T12:03:06.742Z,-1.41
2022-12-13T12:05:38.319Z,-1.52
2022-12-13T12:08:42.563Z,-1.57
2022-12-13T12:11:20.403Z,-1.65
2022-12-13T12:13:54.831Z,-1.65
2022-12-13T12:16:51.231Z,-1.67
2022-12-13T12:19:34.726Z,-1.69
2022-12-13T12:22:26.387Z,-1.63
2022-12-13T12:25:04.171Z,-1.57
2022-12-13T12:27:51.477Z,-1.49
2022-12-13T12:30:38.991Z,-1.50
2022-12-13T12:33:26.126Z,-1.46
2022-12-13T12:36:08.596Z,-1.48
2022-12-13T12:39:03.337Z,-1.44
2022-12-13T12:41:49.224Z,-1.45
2022-12-13T12:44:21.793Z,-1.38
2022-12-13T12:47:01.491Z,-1.30
2022-12-13T12:50:11.451Z,-1.18
2022-12-13T12:53:04.621Z,-1.11
2022-12-13T12:55:58.868Z,-1.16
2022-12-13T12:58:38.369Z,-1.21
2022-12-13T13:01:17.501Z,-1.32
2022-12-13T13:03:46.365Z,-1.29
2022-12-13T13:06:37.587Z,-1.31
2022-12-13T13:09:07.539Z,-1.36
2022-12-13T13:11:43.380Z,-1.45
2022-12-13T13:14:28.652Z,-1.52
2022-12-13T13:16:56.269Z,-1.58
2022-12-13T13:19:32.101Z,-1.59
2022-12-13T13:22:01.822Z,-1.71
2022-12-13T13:24:34.782Z,-1.77
2022-12-13T13:27:10.772Z,-1.86
2022-12-13T13:29:43.618Z,-1.95
2022-12-13T13:32:11.326Z,-2.12
2022-12-13T13:34:41.874Z,-2.19
2022-12-13T13:37:23.933Z,-2.32
2022-12-13T13:40:02.664Z,-2.38
2022-12-13T13:42:33.098Z,-2.43
2022-12-13T13:45:24.155Z,-2.46
2022-12-13T13:48:14.527Z,-2.54
2022-12-13T13:50:50.820Z,-2.65
2022-12-13T13:53:50.400Z,-2.73
2022-12-13T13:56:50.227Z,-2.80
2022-12-13T13:59:52.726Z,-2.83
2022-12-13T14:02:49.519Z,-2.89
2022-12-13T14:05:35.189Z,-2.93
2022-12-13T14:08:02.296Z,-2.92
2022-12-13T14:10:44.725Z,-2.93
2022-12-13T14:13:27.797Z,-2.96
2022-12-13T14:15:57.700Z,-3.01
2022-12-13T14:18:47.080Z,-3.05
2022-12-13T14:21:23.085Z,-3.10
2022-12-13T14:24:02.921Z,-3.10
2022-12-13T14:26:51.681Z,-3.17
2022-12-13T14:29:33.898Z,-3.20
2022-12-13T14:32:01.193Z,-3.19
2022-12-13T14:34:30.921Z,-3.22
2022-12-13T14:37:01.707Z,-3.26
2022-12-13T14:39:31.349Z,-3.27
2022-12-13T14:42:00.079Z,-3.29
2022-12-13T14:44:31.640Z,-3.33
2022-12-13T14:47:06.164Z,-3.33
2022-12-13T14:49:41.757Z,-3.37
2022-12-13T14:52:27.000Z,-3.39
2022-12-13T14:54:59.659Z,-3.36
2022-12-13T14:57:32.040Z,-3.37
2022-12-13T15:00:02.260Z,-3.36
2022-12-13T15:02:32.359Z,-3.33
2022-12-13T15:05:05.718Z,-3.31
2022-12-13T15:07:38.504Z,-3.31
2022-12-13T15:10:08.395Z,-3.31
2022-12-13T15:12:35.225Z,-3.33
2022-12-13T15:15:05.510Z,-3.39
2022-12-13T15:17:40.062Z,-3.40
2022-12-13T15:20:27.749Z,-3.41
2022-12-13T15:23:10.099Z,-3.43
2022-12-13T15:25:37.684Z,-3.43
2022-12-13T15:28:05.875Z,-3.42
2022-12-13T15:30:35.642Z,-3.48
2022-12-13T15:33:08.009Z,-3.48
2022-12-13T15:35:38.980Z,-3.50
2022-12-13T15:38:14.853Z,-3.52
2022-12-13T15:40:56.827Z,-3.48
2022-12-13T15:43:33.225Z,-3.44
2022-12-13T15:46:00.474Z,-3.41
2022-12-13T15:48:32.091Z,-3.37
2022-12-13T15:51:14.707Z,-3.39
2022-12-13T15:54:07.159Z,-3.41
2022-12-13T15:56:57.895Z,-3.45
2022-12-13T15:59:27.442Z,-3.49
2022-12-13T16:01:58.566Z,-3.51
2022-12-13T16:04:29.104Z,-3.55
2022-12-13T16:06:57.121Z,-3.57
2022-12-13T16:09:38.209Z,-3.60
2022-12-13T16:12:07.169Z,-3.60
2022-12-13T16:14:49.394Z,-3.65
2022-12-13T16:17:27.094Z,-3.68
2022-12-13T16:19:56.080Z,-3.70
2022-12-13T16:22:24.234Z,-3.72
2022-12-13T16:24:52.748Z,-3.73
2022-12-13T16:27:19.950Z,-3.76
2022-12-13T16:29:46.717Z,-3.77
2022-12-13T16:32:13.900Z,-3.80
2022-12-13T16:34:40.729Z,-3.82
2022-12-13T16:37:26.030Z,-3.83
2022-12-13T16:39:54.121Z,-3.87
2022-12-13T16:42:21.718Z,-3.91
2022-12-13T16:45:11.282Z,-3.92
2022-12-13T16:47:48.003Z,-3.93
2022-12-13T16:50:18.883Z,-3.96
2022-12-13T16:52:46.304Z,-3.99
2022-12-13T16:55:13.156Z,-4.03
2022-12-13T16:57:40.419Z,-4.04
2022-12-13T17:00:10.623Z,-4.05
2022-12-13T17:02:38.164Z,-4.03
2022-12-13T17:05:05.663Z,-4.05
2022-12-13T17:07:33.421Z,-4.07
2022-12-13T17:10:00.219Z,-4.09
2022-12-13T17:12:27.335Z,-4.08
2022-12-13T17:14:54.468Z,-4.05
2022-12-13T17:17:21.638Z,-4.10
2022-12-13T17:19:48.533Z,-4.07
2022-12-13T17:22:15.615Z,-4.10
2022-12-13T17:24:42.464Z,-4.13
2022-12-13T17:27:09.932Z,-4.13
2022-12-13T17:29:36.890Z,-4.11
2022-12-13T17:32:05.037Z,-4.11
2022-12-13T17:34:32.074Z,-4.11
2022-12-13T17:36:59.241Z,-4.14
2022-12-13T17:39:26.077Z,-4.13
2022-12-13T17:41:55.643Z,-4.13
2022-12-13T17:44:24.458Z,-4.12
2022-12-13T17:46:55.155Z,-4.14
2022-12-13T17:49:23.241Z,-4.16
2022-12-13T17:51:52.815Z,-4.18
2022-12-13T17:54:21.086Z,-4.12
2022-12-13T17:56:48.739Z,-4.10
2022-12-13T17:59:16.349Z,-4.12
2022-12-13T18:01:44.255Z,-4.15
2022-12-13T18:04:12.628Z,-4.15
2022-12-13T18:06:40.380Z,-4.15
2022-12-13T18:09:08.550Z,-4.20
2022-12-13T18:11:35.938Z,-4.19
2022-12-13T18:14:07.513Z,-4.16
2022-12-13T18:16:37.987Z,-4.16
2022-12-13T18:19:12.368Z,-4.21
2022-12-13T18:21:40.052Z,-4.19
2022-12-13T18:24:07.317Z,-4.21
2022-12-13T18:26:34.875Z,-4.19
2022-12-13T18:29:02.704Z,-4.20
2022-12-13T18:31:29.886Z,-4.18
2022-12-13T18:33:57.022Z,-4.21
2022-12-13T18:36:25.339Z,-4.19
2022-12-13T18:38:52.856Z,-4.21
2022-12-13T18:41:23.908Z,-4.21
2022-12-13T18:43:55.901Z,-4.21
2022-12-13T18:46:31.625Z,-4.21
2022-12-13T18:48:58.880Z,-4.20
2022-12-13T18:51:27.126Z,-4.19
2022-12-13T18:53:54.994Z,-4.20
2022-12-13T18:56:22.924Z,-4.24
2022-12-13T18:58:50.943Z,-4.25
2022-12-13T19:01:19.100Z,-4.27
2022-12-13T19:03:47.322Z,-4.28
2022-12-13T19:06:23.206Z,-4.27
2022-12-13T19:08:56.286Z,-4.30
2022-12-13T19:11:26.052Z,-4.33
2022-12-13T19:13:53.084Z,-4.30
2022-12-13T19:16:21.844Z,-4.29
2022-12-13T19:18:49.035Z,-4.31
2022-12-13T19:21:19.090Z,-4.31
2022-12-13T19:23:51.316Z,-4.36
2022-12-13T19:26:22.829Z,-4.36
2022-12-13T19:28:49.629Z,-4.33
2022-12-13T19:31:16.775Z,-4.35
2022-12-13T19:33:44.037Z,-4.37
2022-12-13T19:36:11.697Z,-4.38
2022-12-13T19:38:39.466Z,-4.40
2022-12-13T19:41:09.401Z,-4.40
2022-12-13T19:43:36.381Z,-4.41
2022-12-13T19:46:03.921Z,-4.40
2022-12-13T19:48:30.826Z,-4.38
2022-12-13T19:50:59.862Z,-4.36
2022-12-13T19:53:28.302Z,-4.33
2022-12-13T19:55:56.282Z,-4.32
2022-12-13T19:58:23.433Z,-4.34
2022-12-13T20:00:50.696Z,-4.32
2022-12-13T20:03:17.893Z,-4.29
2022-12-13T20:05:45.987Z,-4.33
2022-12-13T20:08:12.909Z,-4.30
2022-12-13T20:10:40.086Z,-4.32
2022-12-13T20:13:06.914Z,-4.33
2022-12-13T20:15:34.128Z,-4.34
2022-12-13T20:18:00.892Z,-4.33
2022-12-13T20:20:40.973Z,-4.34
2022-12-13T20:23:14.865Z,-4.36
2022-12-13T20:25:41.999Z,-4.38
2022-12-13T20:28:15.896Z,-4.41
2022-12-13T20:30:43.504Z,-4.40
2022-12-13T20:33:13.832Z,-4.35
2022-12-13T20:36:00.929Z,-4.35
2022-12-13T20:38:29.949Z,-4.35
2022-12-13T20:41:02.101Z,-4.33
2022-12-13T20:43:30.106Z,-4.30
2022-12-13T20:46:10.228Z,-4.33
2022-12-13T20:48:45.189Z,-4.33
2022-12-13T20:51:14.789Z,-4.33
2022-12-13T20:53:43.870Z,-4.35
2022-12-13T20:56:18.516Z,-4.35
2022-12-13T20:58:45.574Z,-4.37
2022-12-13T21:01:21.102Z,-4.38
2022-12-13T21:03:48.313Z,-4.35
2022-12-13T21:06:15.793Z,-4.34
2022-12-13T21:08:51.256Z,-4.36
2022-12-13T21:11:35.146Z,-4.35
2022-12-13T21:14:23.485Z,-4.33
2022-12-13T21:16:57.074Z,-4.33
2022-12-13T21:19:26.185Z,-4.34
2022-12-13T21:21:54.589Z,-4.33
2022-12-13T21:24:23.163Z,-4.35
2022-12-13T21:26:51.355Z,-4.38
2022-12-13T21:29:18.868Z,-4.38
2022-12-13T21:31:49.863Z,-4.35
2022-12-13T21:34:18.083Z,-4.38
2022-12-13T21:36:47.591Z,-4.36
2022-12-13T21:39:17.945Z,-4.33
2022-12-13T21:41:45.663Z,-4.33
2022-12-13T21:44:15.228Z,-4.31
2022-12-13T21:49:29.805Z,-4.31
2022-12-13T21:51:57.358Z,-4.33
2022-12-13T21:54:24.141Z,-4.30
2022-12-13T21:57:09.854Z,-4.33
2022-12-13T21:59:36.877Z,-4.31
2022-12-13T22:02:12.143Z,-4.26
2022-12-13T22:04:40.702Z,-4.27
2022-12-13T22:07:09.400Z,-4.29
2022-12-13T22:09:37.286Z,-4.31
2022-12-13T22:12:10.192Z,-4.29
2022-12-13T22:14:37.717Z,-4.32
2022-12-13T22:17:04.797Z,-4.32
2022-12-13T22:19:31.727Z,-4.33
2022-12-13T22:21:58.912Z,-4.33
2022-12-13T22:24:25.736Z,-4.31
2022-12-13T22:26:52.768Z,-4.34
2022-12-13T22:29:19.720Z,-4.31
2022-12-13T22:31:48.850Z,-4.32
2022-12-13T22:34:16.313Z,-4.31
2022-12-13T22:36:43.423Z,-4.30
2022-12-13T22:39:19.051Z,-4.31
2022-12-13T22:41:47.424Z,-4.32
2022-12-13T22:44:15.278Z,-4.34
2022-12-13T22:46:43.009Z,-4.35
2022-12-13T22:49:11.170Z,-4.33
2022-12-13T22:51:39.267Z,-4.36
2022-12-13T22:54:06.925Z,-4.38
2022-12-13T22:56:34.482Z,-4.40
2022-12-13T22:59:02.892Z,-4.39
2022-12-13T23:01:39.957Z,-4.42
2022-12-13T23:04:07.537Z,-4.43
2022-12-13T23:06:37.286Z,-4.44
2022-12-13T23:09:11.353Z,-4.46
2022-12-13T23:11:57.830Z,-4.47
2022-12-13T23:14:31.322Z,-4.48
2022-12-13T23:16:59.258Z,-4.49
2022-12-13T23:19:50.631Z,-4.51
2022-12-13T23:22:14.173Z,-4.52
2022-12-13T23:24:41.023Z,-4.53
2022-12-13T23:27:08.073Z,-4.52
2022-12-13T23:29:35.018Z,-4.57
2022-12-13T23:32:02.184Z,-4.57
2022-12-13T23:34:28.969Z,-4.56
2022-12-13T23:36:56.046Z,-4.56
2022-12-13T23:39:22.797Z,-4.55
2022-12-13T23:41:49.972Z,-4.57
2022-12-13T23:44:16.806Z,-4.57
2022-12-13T23:46:48.579Z,-4.58
2022-12-13T23:49:16.416Z,-4.60
2022-12-13T23:51:43.772Z,-4.58
2022-12-13T23:54:14.765Z,-4.60
2022-12-13T23:56:42.105Z,-4.60
2022-12-13T23:59:08.949Z,-4.61
